Time;durP1;ratioP1;P1;durP2;ratioP2;P2;SDS_P1;SDS_P2;PMS_P1;PMS_P2;Temp;Humidity;BMP_temperature;BMP_pressure;BME280_temperature;BME280_humidity;BME280_pressure;Samples;Min_cycle;Max_cycle;Signal;HPM_P1;HPM_P2
2022/05/19 00:01:54;;;;;;;30.17;21.58;;;;;;;20.24;77.35;101616.19;5117054;28;20034;-64
2022/05/19 00:04:20;;;;;;;27.73;21.88;;;;;;;20.16;77.61;101607.66;5116799;28;20055;-64
2022/05/19 00:06:45;;;;;;;28.33;22.77;;;;;;;20.06;78.41;101611.63;5116922;28;20093;-63
2022/05/19 00:09:11;;;;;;;29.83;21.52;;;;;;;20.07;78.36;101610.69;5116959;28;20027;-63
2022/05/19 00:11:37;;;;;;;29.85;21.85;;;;;;;20.03;78.42;101602.00;5117008;28;20028;-63
2022/05/19 00:14:03;;;;;;;29.98;22.70;;;;;;;20.08;78.45;101600.00;5116947;28;20345;-63
2022/05/19 00:16:29;;;;;;;31.80;22.08;;;;;;;20.08;78.24;101594.69;5116782;28;20050;-63
2022/05/19 00:18:54;;;;;;;32.10;23.25;;;;;;;19.99;78.65;101591.53;5115993;28;20370;-63
2022/05/19 00:21:19;;;;;;;29.90;21.50;;;;;;;19.98;78.97;101592.47;5116501;28;20032;-63
2022/05/19 00:23:45;;;;;;;32.25;22.77;;;;;;;19.91;79.16;101583.03;5116292;28;20024;-63
2022/05/19 00:26:10;;;;;;;32.92;23.25;;;;;;;19.88;79.59;101585.81;5116556;28;20328;-63
2022/05/19 00:28:35;;;;;;;29.90;22.70;;;;;;;19.89;79.28;101577.78;5115471;28;20027;-63
2022/05/19 00:31:01;;;;;;;30.83;23.27;;;;;;;19.88;79.74;101583.16;5116473;28;20038;-63
2022/05/19 00:33:26;;;;;;;28.92;23.13;;;;;;;19.88;79.74;101584.00;5116166;28;20582;-63
2022/05/19 00:35:52;;;;;;;32.17;23.15;;;;;;;19.87;79.53;101582.28;5116113;28;20092;-63
2022/05/19 00:38:17;;;;;;;32.90;23.42;;;;;;;19.87;79.37;101569.00;5116297;28;20023;-63
2022/05/19 00:40:51;;;;;;;31.13;23.00;;;;;;;19.95;78.90;101581.94;5116268;28;20027;-63
2022/05/19 00:43:27;;;;;;;29.98;22.98;;;;;;;19.88;79.44;101572.53;5116224;28;20070;-63
2022/05/19 00:46:02;;;;;;;34.30;24.70;;;;;;;19.81;79.82;101558.59;5116378;28;20031;-63
2022/05/19 00:48:37;;;;;;;34.20;23.55;;;;;;;19.79;80.15;101568.44;5116146;28;20027;-63
2022/05/19 00:51:06;;;;;;;30.38;22.90;;;;;;;19.77;79.76;101560.50;5116125;28;20035;-63
2022/05/19 00:53:41;;;;;;;29.88;22.50;;;;;;;19.75;80.36;101562.38;5116032;28;20024;-62
2022/05/19 00:56:18;;;;;;;32.97;24.00;;;;;;;19.71;80.07;101555.47;5116072;28;20066;-64
2022/05/19 00:59:06;;;;;;;30.98;22.83;;;;;;;19.71;79.43;101558.13;5116057;28;20046;-63
2022/05/19 01:01:33;;;;;;;32.65;24.30;;;;;;;19.61;80.59;101558.53;5099792;28;20050;-64
2022/05/19 01:04:21;;;;;;;36.28;24.63;;;;;;;19.52;80.82;101542.97;5115953;28;20028;-63
2022/05/19 01:06:50;;;;;;;30.90;24.00;;;;;;;19.41;81.94;101533.59;5114809;28;20446;-64
2022/05/19 01:09:16;;;;;;;31.33;24.38;;;;;;;19.42;81.86;101539.78;5115911;28;20046;-63
2022/05/19 01:11:43;;;;;;;32.75;24.65;;;;;;;19.39;81.87;101538.09;5115682;28;20118;-63
2022/05/19 01:14:10;;;;;;;32.92;24.98;;;;;;;19.38;82.09;101536.41;5115758;28;20077;-63
2022/05/19 01:16:36;;;;;;;31.08;24.52;;;;;;;19.43;82.30;101541.50;5115835;28;20047;-64
2022/05/19 01:19:10;;;;;;;33.63;24.80;;;;;;;19.40;82.40;101529.22;5112728;28;20039;-63
2022/05/19 01:21:36;;;;;;;34.20;24.63;;;;;;;19.33;82.31;101530.38;5115366;28;20035;-63
2022/05/19 01:24:11;;;;;;;31.55;24.83;;;;;;;19.32;82.48;101528.66;5115497;28;20039;-63
2022/05/19 01:26:40;;;;;;;32.67;25.23;;;;;;;19.30;83.11;101521.69;5115551;28;20024;-63
2022/05/19 01:29:07;;;;;;;34.25;25.25;;;;;;;19.24;82.95;101519.25;5115624;28;20023;-63
2022/05/19 01:31:47;;;;;;;33.85;25.38;;;;;;;19.28;82.92;101515.56;5115724;28;20099;-63
2022/05/19 01:34:15;;;;;;;37.72;25.38;;;;;;;19.27;83.05;101517.34;5115885;28;20051;-63
2022/05/19 01:36:40;;;;;;;31.42;25.15;;;;;;;19.19;83.42;101497.34;5115160;28;20046;-63
2022/05/19 01:39:12;;;;;;;37.10;26.33;;;;;;;19.19;83.55;101500.00;5115372;28;20036;-64
2022/05/19 01:41:44;;;;;;;33.33;26.67;;;;;;;19.10;84.67;101503.84;5118972;28;20031;-63
2022/05/19 01:44:37;;;;;;;35.53;26.88;;;;;;;19.12;83.77;101500.22;5119812;28;20020;-63
2022/05/19 01:47:21;;;;;;;33.90;27.58;;;;;;;19.15;83.85;101509.00;5119601;28;20020;-63
2022/05/19 01:49:55;;;;;;;35.45;27.55;;;;;;;19.13;84.75;101503.75;5119582;28;20462;-63
2022/05/19 01:52:31;;;;;;;39.72;28.05;;;;;;;19.18;85.15;101500.94;5119754;28;20046;-62
2022/05/19 01:55:25;;;;;;;37.20;27.38;;;;;;;19.20;83.92;101493.78;5119478;28;20038;-63
2022/05/19 01:58:02;;;;;;;37.38;27.67;;;;;;;19.18;84.55;101491.19;5119474;28;20035;-63
2022/05/19 02:00:29;;;;;;;33.72;27.65;;;;;;;19.13;85.14;101494.00;5119458;28;20038;-63
2022/05/19 02:03:16;;;;;;;35.90;28.20;;;;;;;19.17;84.41;101491.25;5119631;28;20028;-63
2022/05/19 02:05:53;;;;;;;40.05;28.40;;;;;;;19.18;84.95;101493.84;5119519;28;20035;-63
2022/05/19 02:08:39;;;;;;;35.25;27.45;;;;;;;19.15;85.13;101485.97;5119359;28;20039;-63
2022/05/19 02:11:10;;;;;;;35.72;28.25;;;;;;;19.14;85.84;101481.59;5119231;28;20115;-62
2022/05/19 02:13:36;;;;;;;39.00;27.40;;;;;;;19.14;85.64;101481.59;5118771;28;20059;-63
2022/05/19 02:16:05;;;;;;;35.08;27.85;;;;;;;19.12;85.98;101479.00;5118950;28;20273;-63
2022/05/19 02:18:31;;;;;;;34.50;27.08;;;;;;;19.15;85.97;101493.09;5119316;28;20024;-64
2022/05/19 02:20:58;;;;;;;36.88;28.00;;;;;;;19.11;85.78;101489.66;5118840;28;20406;-62
2022/05/19 02:23:24;;;;;;;34.88;26.27;;;;;;;19.15;85.76;101490.44;5119001;28;20032;-63
2022/05/19 02:25:52;;;;;;;34.10;25.92;;;;;;;19.19;85.76;101481.44;5118990;28;20042;-62
2022/05/19 02:28:36;;;;;;;35.53;25.67;;;;;;;19.24;85.38;101500.66;5118988;28;20031;-63
2022/05/19 02:31:02;;;;;;;34.15;25.58;;;;;;;19.23;85.56;101489.19;5119188;28;20038;-63
2022/05/19 02:33:28;;;;;;;33.38;25.95;;;;;;;19.20;85.82;101493.78;5118811;28;20047;-63
2022/05/19 02:35:54;;;;;;;34.15;25.20;;;;;;;19.22;85.42;101492.75;5118903;28;20106;-63
2022/05/19 02:38:21;;;;;;;32.60;24.55;;;;;;;19.26;85.10;101490.88;5118701;28;20088;-63
2022/05/19 02:40:47;;;;;;;30.33;23.60;;;;;;;19.28;84.83;101499.63;5118511;28;20124;-63
2022/05/19 02:43:14;;;;;;;31.83;23.70;;;;;;;19.36;84.41;101500.22;5118951;28;20038;-63
2022/05/19 02:45:40;;;;;;;29.52;23.35;;;;;;;19.36;84.35;101502.88;5118373;28;20034;-63
2022/05/19 02:48:07;;;;;;;27.88;22.52;;;;;;;19.40;84.24;101507.09;5118634;28;20046;-63
2022/05/19 02:50:33;;;;;;;25.73;21.35;;;;;;;19.47;83.68;101498.84;5118339;28;20100;-63
2022/05/19 02:52:58;;;;;;;26.88;21.55;;;;;;;19.47;83.20;101513.91;5117382;28;20366;-63
2022/05/19 02:55:24;;;;;;;28.00;21.10;;;;;;;19.50;82.95;101503.22;5118323;28;20023;-64
2022/05/19 02:57:50;;;;;;;22.80;19.90;;;;;;;19.56;82.49;101510.94;5118260;28;20122;-63
2022/05/19 03:00:20;;;;;;;26.73;19.67;;;;;;;19.59;82.17;101521.41;5118404;28;20035;-63
2022/05/19 03:02:46;;;;;;;24.60;18.83;;;;;;;19.59;82.52;101524.06;5115125;28;20096;-63
2022/05/19 03:05:15;;;;;;;26.63;19.70;;;;;;;19.63;82.27;101576.13;5100275;28;20363;-63
2022/05/19 03:07:41;;;;;;;24.98;20.10;;;;;;;19.62;82.33;101635.47;5118287;28;20428;-63
2022/05/19 03:10:06;;;;;;;30.67;22.88;;;;;;;19.53;83.06;101632.31;5118147;28;20030;-63
2022/05/19 03:12:32;;;;;;;29.90;22.95;;;;;;;19.58;82.21;101619.72;5118104;28;20110;-63
2022/05/19 03:14:58;;;;;;;28.85;21.73;;;;;;;19.51;81.40;101629.72;5117962;28;20043;-63
2022/05/19 03:17:24;;;;;;;25.33;20.17;;;;;;;19.66;80.89;101657.47;5117895;28;20350;-62
2022/05/19 03:19:53;;;;;;;32.80;21.10;;;;;;;19.70;79.98;101656.44;5118059;28;20028;-62
2022/05/19 03:22:18;;;;;;;25.08;19.65;;;;;;;19.75;79.97;101657.97;5118165;28;20354;-62
2022/05/19 03:24:43;;;;;;;27.15;20.75;;;;;;;19.76;80.11;101653.53;5117784;28;20035;-63
2022/05/19 03:27:09;;;;;;;23.17;19.92;;;;;;;19.74;79.68;101663.38;5117829;28;20035;-62
2022/05/19 03:29:34;;;;;;;25.67;19.90;;;;;;;19.78;79.23;101652.56;5117714;28;20032;-63
2022/05/19 03:31:59;;;;;;;24.33;19.03;;;;;;;19.81;79.49;101664.84;5117772;28;20276;-63
2022/05/19 03:34:25;;;;;;;27.83;19.85;;;;;;;19.77;79.52;101658.78;5117064;28;20275;-63
2022/05/19 03:36:50;;;;;;;22.52;18.75;;;;;;;19.81;79.29;101647.13;5117805;28;20446;-63
2022/05/19 03:39:16;;;;;;;24.45;18.73;;;;;;;19.81;79.96;101651.56;5117541;28;20023;-62
2022/05/19 03:41:41;;;;;;;24.13;19.30;;;;;;;19.80;80.08;101657.81;5117839;28;20024;-63
2022/05/19 03:44:06;;;;;;;25.23;19.23;;;;;;;19.82;80.26;101661.28;5117259;28;20110;-62
2022/05/19 03:46:32;;;;;;;26.00;18.95;;;;;;;19.81;80.04;101676.34;5117550;28;20027;-63
2022/05/19 03:48:57;;;;;;;24.75;18.85;;;;;;;19.78;80.57;101652.56;5117335;28;20453;-63
2022/05/19 03:51:28;;;;;;;27.58;20.23;;;;;;;19.75;80.55;101642.03;5117500;28;20028;-63
2022/05/19 03:53:54;;;;;;;23.20;19.13;;;;;;;19.73;80.36;101648.38;5117168;28;20050;-62
2022/05/19 03:56:21;;;;;;;23.73;19.80;;;;;;;19.69;80.64;101652.06;5117139;28;20031;-63
2022/05/19 03:58:48;;;;;;;31.90;19.95;;;;;;;19.71;80.89;101652.88;5117002;28;20118;-63
2022/05/19 04:01:14;;;;;;;23.17;19.80;;;;;;;19.71;81.48;101672.31;5117192;28;20430;-63
2022/05/19 04:03:39;;;;;;;24.02;18.27;;;;;;;19.74;81.19;101679.31;5116716;28;20423;-63
2022/05/19 04:06:05;;;;;;;24.17;17.88;;;;;;;19.75;81.47;101673.91;5117146;28;20032;-63
2022/05/19 04:08:31;;;;;;;24.85;19.08;;;;;;;19.65;82.14;101656.63;5113464;28;20035;-64
2022/05/19 04:10:56;;;;;;;22.05;18.30;;;;;;;19.78;81.44;101675.59;5116843;28;20032;-65
2022/05/19 04:13:21;;;;;;;26.55;18.15;;;;;;;19.78;81.44;101676.47;5116748;28;20370;-63
2022/05/19 04:15:47;;;;;;;25.13;19.35;;;;;;;19.75;81.23;101665.94;5116873;28;20031;-63
2022/05/19 04:18:12;;;;;;;22.33;19.23;;;;;;;19.71;81.67;101668.81;5116524;28;20104;-62
2022/05/19 04:20:37;;;;;;;22.93;18.00;;;;;;;19.70;82.47;101683.00;5116756;28;20538;-63
2022/05/19 04:23:03;;;;;;;23.83;18.23;;;;;;;19.68;82.33;101674.22;5116568;28;20324;-63
2022/05/19 04:25:29;;;;;;;22.00;17.27;;;;;;;19.71;82.36;101680.28;5116703;28;20097;-63
2022/05/19 04:27:55;;;;;;;22.20;17.67;;;;;;;19.69;82.77;101671.50;5116390;28;20032;-62
2022/05/19 04:30:21;;;;;;;23.20;19.77;;;;;;;19.69;82.30;101682.13;5116563;28;20038;-63
2022/05/19 04:32:47;;;;;;;28.95;21.15;;;;;;;19.68;81.94;101674.22;5116297;28;20085;-63
2022/05/19 04:35:14;;;;;;;24.52;20.20;;;;;;;19.62;82.40;101669.13;5116457;28;20372;-63
2022/05/19 04:37:39;;;;;;;25.33;20.85;;;;;;;19.67;82.52;101678.66;5116307;28;20110;-62
2022/05/19 04:40:06;;;;;;;27.58;21.58;;;;;;;19.69;82.39;101657.38;5116050;28;20136;-63
2022/05/19 04:42:32;;;;;;;27.45;21.40;;;;;;;19.73;81.90;101666.97;5116370;28;20377;-63
2022/05/19 04:44:57;;;;;;;25.00;20.75;;;;;;;19.74;81.74;101668.69;5116204;28;20031;-63
2022/05/19 04:47:22;;;;;;;26.52;21.67;;;;;;;19.70;81.72;101665.28;5116337;28;20028;-63
2022/05/19 04:49:48;;;;;;;25.70;20.45;;;;;;;19.72;81.87;101668.75;5116211;28;20051;-63
2022/05/19 04:52:13;;;;;;;26.20;21.48;;;;;;;19.71;82.29;101663.50;5115909;28;20122;-64
2022/05/19 04:54:39;;;;;;;23.50;20.13;;;;;;;19.71;82.56;101659.03;5116420;28;20038;-63
2022/05/19 04:57:05;;;;;;;24.35;19.73;;;;;;;19.71;82.47;101659.03;5115954;28;20031;-63
2022/05/19 04:59:31;;;;;;;26.38;19.90;;;;;;;19.71;82.98;101663.50;5115980;28;20112;-62
2022/05/19 05:01:57;;;;;;;25.30;18.45;;;;;;;19.73;83.46;101675.78;5108704;27;20027;-62
2022/05/19 05:04:26;;;;;;;23.30;18.58;;;;;;;19.73;82.54;101656.34;5110815;27;20429;-61
2022/05/19 05:06:51;;;;;;;23.45;17.90;;;;;;;19.73;82.77;101666.97;5111505;27;20019;-63
2022/05/19 05:09:16;;;;;;;24.38;19.63;;;;;;;19.66;83.67;101661.00;5124170;27;20047;-64
2022/05/19 05:11:42;;;;;;;21.45;18.25;;;;;;;19.64;83.70;101654.88;5123173;27;20035;-65
2022/05/19 05:14:08;;;;;;;21.67;16.20;;;;;;;19.62;83.53;101643.44;5132612;27;20334;-66
2022/05/19 05:16:34;;;;;;;18.48;15.40;;;;;;;19.60;83.34;101647.94;5115447;28;20036;-64
2022/05/19 05:18:59;;;;;;;18.10;13.88;;;;;;;19.57;84.11;101629.47;5117688;27;20031;-65
2022/05/19 05:21:24;;;;;;;25.35;16.88;;;;;;;19.23;90.88;101626.31;5120452;27;20182;-63
2022/05/19 05:23:50;;;;;;;22.17;17.17;;;;;;;18.68;97.14;101631.81;5135373;27;20152;-62
2022/05/19 05:26:15;;;;;;;26.40;20.30;;;;;;;18.38;100.00;101609.81;5123029;27;20276;-63
2022/05/19 05:28:41;;;;;;;24.80;20.33;;;;;;;18.25;100.00;101603.19;5135994;27;20264;-63
2022/05/19 05:31:07;;;;;;;27.38;21.95;;;;;;;18.03;100.00;101581.84;5136122;27;20042;-60
2022/05/19 05:33:32;;;;;;;26.27;21.13;;;;;;;18.15;100.00;101604.44;5136275;27;20074;-63
2022/05/19 05:35:57;;;;;;;26.23;22.03;;;;;;;18.12;100.00;101603.66;5135721;27;20027;-65
2022/05/19 05:38:23;;;;;;;27.38;22.00;;;;;;;18.08;100.00;101597.59;5136094;27;20268;-63
2022/05/19 05:40:50;;;;;;;27.13;22.65;;;;;;;18.03;100.00;101584.50;5136162;28;20410;-64
2022/05/19 05:43:19;;;;;;;27.50;23.38;;;;;;;17.94;100.00;101560.97;5135913;28;20073;-65
2022/05/19 05:45:45;;;;;;;24.98;21.98;;;;;;;17.95;100.00;101575.06;5126163;28;20084;-64
2022/05/19 05:48:12;;;;;;;24.35;19.08;;;;;;;17.82;100.00;101556.06;5119750;28;20039;-64
2022/05/19 05:50:37;;;;;;;27.27;21.80;;;;;;;17.79;100.00;101552.66;5120529;28;20446;-64
2022/05/19 05:53:03;;;;;;;25.63;21.38;;;;;;;17.76;100.00;101568.63;5115276;28;20028;-64
2022/05/19 05:55:30;;;;;;;21.35;19.08;;;;;;;17.80;100.00;101570.28;5115248;28;20071;-63
2022/05/19 05:57:55;;;;;;;23.35;18.52;;;;;;;17.78;100.00;101556.22;5115378;28;20027;-65
2022/05/19 06:00:21;;;;;;;23.13;18.20;;;;;;;17.88;100.00;101569.09;5115315;28;20462;-65
2022/05/19 06:02:48;;;;;;;24.27;20.30;;;;;;;17.84;100.00;101556.00;5115352;28;20039;-64
2022/05/19 06:05:13;;;;;;;29.42;21.77;;;;;;;17.93;100.00;101543.34;5114828;28;20327;-65
2022/05/19 06:07:39;;;;;;;26.33;21.88;;;;;;;18.02;100.00;101544.81;5115137;28;20031;-63
2022/05/19 06:10:05;;;;;;;29.33;23.65;;;;;;;18.17;100.00;101569.94;5115116;28;20035;-64
2022/05/19 06:12:30;;;;;;;29.05;22.90;;;;;;;18.29;100.00;101578.34;5115310;28;20031;-63
2022/05/19 06:14:56;;;;;;;31.20;22.80;;;;;;;18.48;100.00;101588.31;5115106;28;20027;-65
2022/05/19 06:17:23;;;;;;;26.98;20.85;;;;;;;18.67;100.00;101578.84;5115130;28;20027;-66
2022/05/19 06:19:48;;;;;;;27.25;21.83;;;;;;;18.79;100.00;101570.44;5115009;28;20438;-66
2022/05/19 06:22:13;;;;;;;27.40;21.92;;;;;;;18.90;100.00;101565.59;5115134;28;20031;-65
2022/05/19 06:24:38;;;;;;;28.47;22.53;;;;;;;19.03;99.88;101580.19;5114916;28;20362;-64
2022/05/19 06:27:04;;;;;;;27.48;22.35;;;;;;;19.10;99.72;101567.53;5117200;28;20257;-63
2022/05/19 06:29:29;;;;;;;27.55;22.85;;;;;;;19.07;98.21;101563.19;5111216;28;20034;-64
2022/05/19 06:31:54;;;;;;;26.20;23.27;;;;;;;19.08;97.66;101554.31;5113948;28;20036;-63
2022/05/19 06:34:20;;;;;;;29.67;23.05;;;;;;;19.16;97.47;101547.88;5117946;28;20055;-63
2022/05/19 06:36:46;;;;;;;25.58;22.52;;;;;;;19.18;97.47;101546.03;5118432;28;20043;-63
2022/05/19 06:39:11;;;;;;;25.67;22.40;;;;;;;19.27;96.61;101550.97;5118624;28;20028;-62
2022/05/19 06:44:20;;;;;;;26.58;21.27;;;;;;;19.33;94.97;101550.75;5118299;28;20043;-62
2022/05/19 06:46:46;;;;;;;26.77;22.55;;;;;;;19.40;94.96;101552.22;5118423;28;20047;-63
2022/05/19 06:49:12;;;;;;;24.60;21.42;;;;;;;19.48;95.17;101531.56;5118281;28;20075;-62
2022/05/19 06:51:37;;;;;;;23.85;21.30;;;;;;;19.56;95.75;101531.31;5118613;28;20142;-62
2022/05/19 06:54:04;;;;;;;28.30;22.05;;;;;;;19.57;94.26;101536.53;5117959;28;20119;-61
2022/05/19 06:56:29;;;;;;;27.67;21.15;;;;;;;19.68;95.62;101542.31;5118517;28;20027;-62
2022/05/19 06:58:54;;;;;;;23.58;21.08;;;;;;;19.74;94.36;101547.34;5118191;28;20050;-62
2022/05/19 07:01:20;;;;;;;24.85;21.20;;;;;;;19.77;92.49;101549.03;5114923;27;20024;-61
2022/05/19 07:03:45;;;;;;;26.17;19.08;;;;;;;19.84;92.46;101553.19;5135269;27;20338;-62
2022/05/19 07:06:11;;;;;;;25.58;20.40;;;;;;;19.90;91.05;101538.78;5108506;27;20043;-62
2022/05/19 07:08:38;;;;;;;23.35;19.75;;;;;;;19.97;91.01;101533.16;5097587;28;20039;-62
2022/05/19 07:11:05;;;;;;;23.77;19.63;;;;;;;20.05;91.02;101536.38;5097412;28;20067;-61
2022/05/19 07:13:31;;;;;;;23.77;20.55;;;;;;;20.08;91.17;101525.59;5111381;27;20136;-61
2022/05/19 07:15:57;;;;;;;24.27;20.00;;;;;;;20.23;90.43;101523.22;5114835;28;20122;-63
2022/05/19 07:18:22;;;;;;;22.52;19.77;;;;;;;20.31;90.95;101521.09;5104617;28;20036;-63
2022/05/19 07:20:48;;;;;;;22.48;19.67;;;;;;;20.33;89.26;101524.56;5110017;27;20054;-63
2022/05/19 07:23:24;;;;;;;21.67;18.67;;;;;;;20.36;89.65;101527.97;5121610;27;20043;-63
2022/05/19 07:25:50;;;;;;;23.38;18.92;;;;;;;20.40;88.92;101516.28;5117628;28;20024;-63
2022/05/19 07:28:18;;;;;;;24.38;18.45;;;;;;;20.50;88.54;101520.25;5097393;28;20039;-64
2022/05/19 07:30:47;;;;;;;21.63;17.67;;;;;;;20.52;87.91;101496.25;5097140;28;20042;-63
2022/05/19 07:33:14;;;;;;;19.85;17.75;;;;;;;20.58;86.89;101516.41;5097138;28;20052;-63
2022/05/19 07:35:41;;;;;;;22.42;18.50;;;;;;;20.53;85.76;101521.06;5097311;28;20056;-63
2022/05/19 07:38:06;;;;;;;20.17;18.00;;;;;;;20.49;87.21;101515.88;5097100;28;20032;-63
2022/05/19 07:40:32;;;;;;;20.88;17.85;;;;;;;20.68;86.22;101541.66;5113445;28;20480;-64
2022/05/19 07:45:42;;;;;;;20.10;17.10;;;;;;;20.96;85.78;101539.47;5117001;28;20381;-61
2022/05/19 07:48:07;;;;;;;20.13;16.75;;;;;;;21.09;84.91;101553.97;5099747;28;20031;-62
2022/05/19 07:50:32;;;;;;;20.42;17.20;;;;;;;21.12;82.73;101551.19;5097128;28;20107;-63
2022/05/19 07:52:58;;;;;;;21.40;17.92;;;;;;;21.07;82.88;101544.31;5097149;28;20051;-62
2022/05/19 07:55:23;;;;;;;26.50;18.00;;;;;;;21.08;81.98;101535.41;5097293;28;20040;-62
2022/05/19 07:57:48;;;;;;;20.30;17.92;;;;;;;21.07;81.59;101526.56;5092964;28;20732;-64
2022/05/19 08:00:15;;;;;;;20.10;17.67;;;;;;;21.15;82.01;101521.72;5096416;28;20051;-63
2022/05/19 08:02:40;;;;;;;19.98;17.83;;;;;;;21.27;80.59;101524.81;5096433;28;20443;-63
2022/05/19 08:05:06;;;;;;;20.45;16.83;;;;;;;21.24;79.60;101517.81;5096402;28;20042;-62
2022/05/19 08:07:31;;;;;;;19.00;15.80;;;;;;;21.22;78.72;101516.16;5096575;28;20081;-65
2022/05/19 08:15:36;;;;;;;20.67;15.63;;;;;;;21.51;78.71;101534.28;5096241;28;20043;-67
2022/05/19 08:18:13;;;;;;;17.48;15.02;;;;;;;21.67;78.87;101539.72;5096313;28;20435;-66
2022/05/19 08:20:44;;;;;;;16.75;14.27;;;;;;;21.76;77.74;101542.81;5096470;28;20035;-66
2022/05/19 08:23:16;;;;;;;17.67;13.98;;;;;;;21.86;75.34;101541.41;5096427;28;20115;-66
2022/05/19 08:25:43;;;;;;;16.00;13.80;;;;;;;21.92;75.42;101534.94;5096256;28;20344;-66
2022/05/19 08:28:08;;;;;;;16.33;12.95;;;;;;;21.97;74.05;101529.38;5095659;28;20478;-66
2022/05/19 08:30:34;;;;;;;14.38;12.35;;;;;;;22.08;72.69;101541.25;5096156;28;20028;-67
2022/05/19 08:32:59;;;;;;;15.82;11.60;;;;;;;22.16;71.55;101539.09;5096197;28;20051;-65
2022/05/19 08:35:25;;;;;;;12.18;10.65;;;;;;;22.29;70.93;101538.44;5096023;28;20056;-66
2022/05/19 08:37:50;;;;;;;16.00;11.35;;;;;;;22.39;70.92;101524.56;5095834;28;20036;-66
2022/05/19 08:40:17;;;;;;;14.23;11.45;;;;;;;22.48;67.90;101524.09;5096001;28;20032;-66
2022/05/19 08:42:47;;;;;;;13.88;11.48;;;;;;;22.57;68.03;101515.59;5095600;28;20368;-65
2022/05/19 08:45:21;;;;;;;14.38;11.25;;;;;;;22.68;68.43;101520.38;5095933;28;20038;-66
2022/05/19 08:47:50;;;;;;;15.65;10.43;;;;;;;22.87;67.81;101520.25;5096016;28;20039;-66
2022/05/19 08:50:30;;;;;;;12.18;9.95;;;;;;;23.02;66.96;101506.13;5095218;28;20032;-65
2022/05/19 08:52:55;;;;;;;13.38;10.23;;;;;;;23.12;65.46;101504.66;5078380;28;20027;-67
2022/05/19 08:55:21;;;;;;;12.23;10.13;;;;;;;23.20;63.74;101499.72;5095579;28;20032;-66
2022/05/19 08:57:59;;;;;;;16.02;10.13;;;;;;;23.26;64.51;101496.72;5095676;28;20028;-66
2022/05/19 09:00:34;;;;;;;14.10;9.57;;;;;;;23.50;64.78;101493.63;5095929;28;20427;-66
2022/05/19 09:03:15;;;;;;;9.73;8.25;;;;;;;23.98;62.67;101495.31;5096022;28;20398;-66
2022/05/19 09:06:13;;;;;;;11.00;8.50;;;;;;;24.20;61.30;101492.22;5094919;28;20028;-66
2022/05/19 09:08:49;;;;;;;11.45;8.30;;;;;;;24.10;62.36;101491.03;5094888;28;20044;-65
2022/05/19 09:11:23;;;;;;;14.57;8.50;;;;;;;24.31;60.64;101488.91;5095260;28;20103;-66
2022/05/19 09:13:55;;;;;;;11.13;8.10;;;;;;;24.51;60.13;101481.41;5095919;28;20350;-66
2022/05/19 09:16:28;;;;;;;10.70;8.85;;;;;;;25.08;57.98;101465.34;5095320;28;20051;-66
2022/05/19 09:19:14;;;;;;;11.75;9.20;;;;;;;26.19;56.76;101486.56;5095357;28;20028;-65
2022/05/19 09:21:42;;;;;;;11.85;9.18;;;;;;;26.32;54.69;101471.41;5077389;28;20481;-65
2022/05/19 09:24:08;;;;;;;14.35;9.48;;;;;;;26.39;54.27;101479.88;5095193;28;20028;-66
2022/05/19 09:26:49;;;;;;;9.98;8.13;;;;;;;26.26;56.25;101469.97;5095294;28;20051;-66
2022/05/19 09:29:41;;;;;;;10.60;8.40;;;;;;;26.13;57.22;101479.81;5095142;28;20489;-65
2022/05/19 09:32:14;;;;;;;10.25;7.72;;;;;;;26.12;57.38;101477.25;5094798;28;20040;-65
2022/05/19 09:34:43;;;;;;;10.63;7.10;;;;;;;26.19;57.67;101473.16;5095309;28;20040;-65
2022/05/19 09:37:14;;;;;;;12.82;7.78;;;;;;;26.15;56.15;101485.09;5095103;28;20032;-66
2022/05/19 09:39:53;;;;;;;11.10;7.28;;;;;;;26.11;56.85;101480.91;5095018;28;20423;-65
2022/05/19 09:42:33;;;;;;;10.82;7.30;;;;;;;26.12;57.05;101475.44;5094960;28;20463;-65
2022/05/19 09:44:59;;;;;;;12.50;7.38;;;;;;;26.11;54.70;101479.06;5094880;28;20347;-66
2022/05/19 09:47:37;;;;;;;8.48;6.82;;;;;;;25.96;56.33;101480.97;5095103;28;20028;-65
2022/05/19 09:50:06;;;;;;;12.20;7.15;;;;;;;25.77;56.33;101476.94;5094753;28;20036;-65
2022/05/19 09:52:32;;;;;;;12.40;7.20;;;;;;;25.87;56.21;101475.34;5094869;28;20119;-67
2022/05/19 09:55:06;;;;;;;12.32;6.80;;;;;;;25.93;56.17;101475.81;5095765;28;20581;-64
2022/05/19 09:57:50;;;;;;;10.27;7.20;;;;;;;26.00;56.96;101466.38;5095100;28;20031;-64
2022/05/19 10:00:26;;;;;;;10.13;7.18;;;;;;;26.06;56.15;101469.59;5094925;28;20027;-64
2022/05/19 10:02:56;;;;;;;8.18;6.20;;;;;;;26.12;55.87;101455.78;5098320;28;20028;-65
2022/05/19 10:05:33;;;;;;;9.52;6.00;;;;;;;26.23;56.08;101450.53;5111722;28;20038;-65
2022/05/19 10:08:05;;;;;;;7.55;5.13;;;;;;;26.19;52.69;101443.66;5118010;28;20044;-65
2022/05/19 10:10:33;;;;;;;7.80;5.22;;;;;;;26.21;52.54;101433.66;5119209;28;20159;-65
2022/05/19 10:13:17;;;;;;;6.85;5.05;;;;;;;26.25;52.73;101429.81;5119207;28;20367;-66
2022/05/19 10:15:54;;;;;;;8.45;5.15;;;;;;;26.40;51.57;101419.84;5119072;28;20051;-65
2022/05/19 10:18:36;;;;;;;9.07;5.07;;;;;;;26.43;49.56;101407.09;5118567;28;20367;-67
2022/05/19 10:21:16;;;;;;;11.02;4.57;;;;;;;26.48;50.70;101402.25;5119086;28;20031;-65
2022/05/19 10:24:01;;;;;;;8.00;4.45;;;;;;;26.66;49.89;101410.81;5119201;28;20111;-66
2022/05/19 10:26:50;;;;;;;5.57;4.30;;;;;;;26.85;48.66;101419.25;5118864;28;20027;-65
2022/05/19 10:32:27;;;;;;;6.95;4.93;;;;;;;26.77;49.18;101410.03;5112106;28;20070;-65
2022/05/19 10:35:01;;;;;;;6.75;4.63;;;;;;;26.88;47.52;101404.75;5098466;28;20099;-63
2022/05/19 10:37:56;;;;;;;7.55;4.45;;;;;;;27.04;48.24;101405.38;5098697;28;20032;-65
2022/05/19 10:40:57;;;;;;;7.47;4.50;;;;;;;27.18;47.95;101409.75;5098344;28;20038;-64
2022/05/19 10:44:03;;;;;;;8.43;4.40;;;;;;;27.43;48.05;101403.38;5098149;28;20028;-64
2022/05/19 10:46:57;;;;;;;5.93;4.53;;;;;;;27.53;46.46;101420.56;5097319;28;20451;-64
2022/05/19 10:50:04;;;;;;;6.75;4.53;;;;;;;27.46;46.57;101413.91;5097288;28;20040;-65
2022/05/19 10:52:53;;;;;;;5.68;4.10;;;;;;;27.42;47.50;101413.28;5063835;28;20050;-65
2022/05/19 10:55:33;;;;;;;4.97;4.30;;;;;;;27.54;46.77;101400.72;5097958;28;20028;-64
2022/05/19 10:58:17;;;;;;;6.18;4.18;;;;;;;27.83;47.31;101396.72;5098385;28;20063;-65
2022/05/19 11:01:10;;;;;;;6.47;4.57;;;;;;;27.84;45.80;101400.28;5098116;28;20032;-64
2022/05/19 11:04:14;;;;;;;9.38;4.38;;;;;;;27.84;46.07;101392.19;5097979;28;20343;-64
2022/05/19 11:07:04;;;;;;;6.93;4.22;;;;;;;27.75;45.44;101404.50;5097888;28;20028;-64
2022/05/19 11:09:44;;;;;;;7.30;4.32;;;;;;;27.58;45.91;101400.41;5097881;28;20346;-64
2022/05/19 11:12:47;;;;;;;8.45;3.92;;;;;;;27.23;46.50;101392.28;5080682;28;20033;-65
2022/05/19 11:15:25;;;;;;;7.10;4.10;;;;;;;26.88;47.23;101380.56;5097613;28;20020;-65
2022/05/19 11:18:07;;;;;;;8.45;4.03;;;;;;;26.76;47.67;101392.22;5097678;28;20056;-65
2022/05/19 11:20:36;;;;;;;;;;;;;;;26.79;48.23;101405.41;5097881;28;20468;-64
2022/05/19 11:23:20;;;;;;;6.85;4.00;;;;;;;26.37;48.73;101391.41;5097381;28;19912;-64
2022/05/19 11:28:52;;;;;;;7.45;4.15;;;;;;;26.05;49.63;101433.00;5097291;28;20363;-64
2022/05/19 11:31:35;;;;;;;5.70;4.22;;;;;;;25.94;50.83;101442.66;5097186;28;20435;-64
2022/05/19 11:34:11;;;;;;;8.20;4.15;;;;;;;25.88;49.75;101448.44;5097094;28;20426;-64
2022/05/19 11:36:46;;;;;;;7.65;4.22;;;;;;;25.74;51.36;101458.38;5097319;28;20123;-64
2022/05/19 11:39:22;;;;;;;8.70;4.78;;;;;;;25.60;52.68;101470.00;5097394;28;20031;-64
2022/05/19 11:41:50;;;;;;;6.93;3.92;;;;;;;25.60;52.47;101671.06;5097062;28;20093;-63
2022/05/19 11:44:20;;;;;;;72.45;6.68;;;;;;;24.85;58.93;101718.47;5096965;28;20028;-63